Walum, North Dakota
Current Conditions -  °F | °C
As of 6:55 AM on Tuesday 21 Oct 2014 (Local Time) from KBAC Reporting Station
Clear Clear  
Wind Chill: 34°   Ceiling: Unl
Heat Index: 41°   Visibility: 10mi
Dew Point: 41°   Wind: 12mph
Humidity: 100%   Direction: 150°SSE
Pressure: 29.99"   Gusts: 17mph
Location:  47.2843°N, 98.1073°W
Report Text: KBAC 211155Z AUTO 15010G15KT 10SM CLR 05/05 A2999 RMK AO2
Loading
Personal Weather Stations






























Interactive Weather Map New forecast layout! Learn more

10-Day Weather Forecast

Advertisements
Track Severe Weather on mobile